createdAt,value
2022-11-13T00:02:12.935Z,97.35
2022-11-13T00:04:59.630Z,95.95
2022-11-13T00:07:45.434Z,90.84
2022-11-13T00:10:32.179Z,89.11
2022-11-13T00:13:18.497Z,76.26
2022-11-13T00:16:06.266Z,63.98
2022-11-13T00:18:52.377Z,61.43
2022-11-13T00:21:37.958Z,62.67
2022-11-13T00:24:24.199Z,61.65
2022-11-13T00:27:10.905Z,63.75
2022-11-13T00:29:56.690Z,64.45
2022-11-13T00:32:42.267Z,61.75
2022-11-13T00:35:27.980Z,57.61
2022-11-13T00:38:14.707Z,55.75
2022-11-13T00:41:01.094Z,54.81
2022-11-13T00:43:47.447Z,54.16
2022-11-13T00:46:33.505Z,53.65
2022-11-13T00:49:19.930Z,54.34
2022-11-13T00:52:06.453Z,53.07
2022-11-13T00:54:52.297Z,52.33
2022-11-13T00:57:38.336Z,52.06
2022-11-13T01:00:23.796Z,52.61
2022-11-13T01:03:10.553Z,52.51
2022-11-13T01:05:56.738Z,52.75
2022-11-13T01:08:42.521Z,52.48
2022-11-13T01:11:28.816Z,51.75
2022-11-13T01:14:14.796Z,52.03
2022-11-13T01:17:00.925Z,51.90
2022-11-13T01:19:47.398Z,51.75
2022-11-13T01:22:33.169Z,52.21
2022-11-13T01:25:18.924Z,51.52
2022-11-13T01:28:04.632Z,51.30
2022-11-13T01:30:50.905Z,51.87
2022-11-13T01:33:37.401Z,52.33
2022-11-13T01:36:24.478Z,51.96
2022-11-13T01:39:11.240Z,52.97
2022-11-13T01:41:57.339Z,52.24
2022-11-13T01:44:47.618Z,52.67
2022-11-13T01:47:33.595Z,52.89
2022-11-13T01:50:19.482Z,53.15
2022-11-13T01:53:06.567Z,54.11
2022-11-13T01:55:52.473Z,54.17
2022-11-13T01:58:40.376Z,54.78
2022-11-13T02:01:26.469Z,55.29
2022-11-13T02:04:13.244Z,56.26
2022-11-13T02:07:00.487Z,56.23
2022-11-13T02:09:47.571Z,55.31
2022-11-13T02:12:33.831Z,54.41
2022-11-13T02:15:23.676Z,54.08
2022-11-13T02:18:11.488Z,53.45
2022-11-13T02:21:11.131Z,53.01
2022-11-13T02:24:01.378Z,53.37
2022-11-13T02:26:48.208Z,53.57
2022-11-13T02:29:33.899Z,54.09
2022-11-13T02:32:20.263Z,54.52
2022-11-13T02:35:05.912Z,56.16
2022-11-13T02:37:51.905Z,57.21
2022-11-13T02:40:39.202Z,58.87
2022-11-13T02:43:25.425Z,60.20
2022-11-13T02:46:11.261Z,61.19
2022-11-13T02:48:56.948Z,61.57
2022-11-13T02:51:42.796Z,60.87
2022-11-13T02:54:28.585Z,57.67
2022-11-13T02:57:14.146Z,55.26
2022-11-13T03:00:00.539Z,55.99
2022-11-13T03:02:46.281Z,56.75
2022-11-13T03:05:31.925Z,55.29
2022-11-13T03:08:18.074Z,56.38
2022-11-13T03:11:07.862Z,58.05
2022-11-13T03:13:54.051Z,58.93
2022-11-13T03:16:39.880Z,60.49
2022-11-13T03:19:26.693Z,63.83
2022-11-13T03:22:12.949Z,58.41
2022-11-13T03:24:59.448Z,54.96
2022-11-13T03:27:45.575Z,52.21
2022-11-13T03:30:31.691Z,52.28
2022-11-13T03:33:17.434Z,51.73
2022-11-13T03:36:03.520Z,51.41
2022-11-13T03:38:49.621Z,51.36
2022-11-13T03:41:35.615Z,51.57
2022-11-13T03:44:21.692Z,51.64
2022-11-13T03:47:07.312Z,52.54
2022-11-13T03:49:53.086Z,52.75
2022-11-13T03:52:39.001Z,53.05
2022-11-13T03:55:24.779Z,53.20
2022-11-13T03:58:10.772Z,53.15
2022-11-13T04:00:56.411Z,52.91
2022-11-13T04:03:41.919Z,54.02
2022-11-13T04:06:30.342Z,54.35
2022-11-13T04:09:16.276Z,54.03
2022-11-13T04:12:01.699Z,53.73
2022-11-13T04:14:48.148Z,54.07
2022-11-13T04:17:33.893Z,54.45
2022-11-13T04:20:20.341Z,55.79
2022-11-13T04:23:09.690Z,56.24
2022-11-13T04:25:55.543Z,56.18
2022-11-13T04:28:41.383Z,57.58
2022-11-13T04:31:27.159Z,59.01
2022-11-13T04:34:13.942Z,59.62
2022-11-13T04:36:59.635Z,61.04
2022-11-13T04:39:45.439Z,63.32
2022-11-13T04:42:49.513Z,62.29
2022-11-13T04:45:36.341Z,62.63
2022-11-13T04:48:22.634Z,61.82
2022-11-13T04:51:08.575Z,61.61
2022-11-13T04:53:54.490Z,61.26
2022-11-13T04:56:40.507Z,60.78
2022-11-13T04:59:26.598Z,61.44
2022-11-13T05:02:12.889Z,61.99
2022-11-13T05:05:04.432Z,61.80
2022-11-13T05:07:51.102Z,62.22
2022-11-13T05:10:37.042Z,61.91
2022-11-13T05:13:23.386Z,62.31
2022-11-13T05:16:10.864Z,62.85
2022-11-13T05:18:58.358Z,63.27
2022-11-13T05:21:44.460Z,63.77
2022-11-13T05:24:30.933Z,63.56
2022-11-13T05:27:17.786Z,64.66
2022-11-13T05:30:04.166Z,64.57
2022-11-13T05:32:49.876Z,64.54
2022-11-13T05:35:35.903Z,65.66
2022-11-13T05:38:21.628Z,64.83
2022-11-13T05:41:08.867Z,65.25
2022-11-13T05:43:59.209Z,67.79
2022-11-13T05:46:45.655Z,68.74
2022-11-13T05:49:31.438Z,69.73
2022-11-13T05:52:16.874Z,70.71
2022-11-13T05:55:02.902Z,74.55
2022-11-13T05:57:48.578Z,71.76
2022-11-13T06:00:33.981Z,71.15
2022-11-13T06:03:20.409Z,70.15
2022-11-13T06:06:07.576Z,70.66
2022-11-13T06:08:54.700Z,68.93
2022-11-13T06:11:40.433Z,67.33
2022-11-13T06:14:27.278Z,66.17
2022-11-13T06:17:13.354Z,66.55
2022-11-13T06:20:00.061Z,67.08
2022-11-13T06:22:45.587Z,67.26
2022-11-13T06:25:32.051Z,69.09
2022-11-13T06:28:18.343Z,69.23
2022-11-13T06:31:15.385Z,69.56
2022-11-13T06:34:01.966Z,69.17
2022-11-13T06:36:47.831Z,71.01
2022-11-13T06:39:33.854Z,71.71
2022-11-13T06:42:20.345Z,71.48
2022-11-13T06:45:06.573Z,71.72
2022-11-13T06:47:54.275Z,71.00
2022-11-13T06:50:42.388Z,70.75
2022-11-13T06:53:31.986Z,69.44
2022-11-13T06:56:18.102Z,69.45
2022-11-13T06:59:08.287Z,69.40
2022-11-13T10:11:11.591Z,39.79
2022-11-13T10:14:03.395Z,39.77
2022-11-13T10:16:54.971Z,38.42
2022-11-13T10:19:43.329Z,38.82
2022-11-13T10:23:19.873Z,40.23
2022-11-13T10:26:17.563Z,39.93
2022-11-13T10:29:11.291Z,40.42
2022-11-13T10:31:58.811Z,41.32
2022-11-13T10:34:59.668Z,41.15
2022-11-13T10:37:54.397Z,39.78
2022-11-13T10:40:41.155Z,40.11
2022-11-13T10:43:32.368Z,39.30
2022-11-13T10:46:22.102Z,39.22
2022-11-13T10:49:19.616Z,39.54
2022-11-13T10:52:16.716Z,40.08
2022-11-13T10:55:23.910Z,41.78
2022-11-13T10:58:15.190Z,43.47
2022-11-13T11:01:01.993Z,43.50
2022-11-13T11:03:51.132Z,41.70
2022-11-13T11:09:46.853Z,39.38
2022-11-13T11:12:33.444Z,40.54
2022-11-13T11:15:25.077Z,39.29
2022-11-13T11:18:29.342Z,39.84
2022-11-13T11:21:25.661Z,39.80
2022-11-13T11:24:18.886Z,39.88
2022-11-13T11:27:10.390Z,39.11
2022-11-13T11:30:03.426Z,38.32
2022-11-13T11:32:52.173Z,39.02
2022-11-13T11:35:46.512Z,40.64
2022-11-13T11:38:40.314Z,42.05
2022-11-13T11:41:29.684Z,42.19
2022-11-13T11:44:21.724Z,41.33
2022-11-13T11:47:14.753Z,41.15
2022-11-13T11:50:01.649Z,41.54
2022-11-13T11:52:47.467Z,42.11
2022-11-13T11:55:33.830Z,43.16
2022-11-13T11:58:34.484Z,42.42
2022-11-13T12:01:56.037Z,41.61
2022-11-13T12:05:00.793Z,41.38
2022-11-13T12:07:54.603Z,42.90
2022-11-13T12:10:49.676Z,43.61
2022-11-13T12:13:41.153Z,42.24
2022-11-13T12:16:32.384Z,42.54
2022-11-13T12:19:37.424Z,42.23
2022-11-13T12:22:43.930Z,41.92
2022-11-13T12:25:42.212Z,41.70
2022-11-13T12:28:49.764Z,39.67
2022-11-13T12:32:09.051Z,39.76
2022-11-13T12:34:58.486Z,39.89
2022-11-13T12:37:59.747Z,40.65
2022-11-13T12:40:53.017Z,41.79
2022-11-13T12:44:11.841Z,44.57
2022-11-13T12:47:00.743Z,44.40
2022-11-13T12:49:46.938Z,46.71
2022-11-13T12:52:33.183Z,46.37
2022-11-13T12:55:27.970Z,46.13
2022-11-13T12:58:33.177Z,46.42
2022-11-13T13:01:20.912Z,47.07
2022-11-13T13:04:16.275Z,45.50
2022-11-13T13:07:09.573Z,46.12
2022-11-13T13:09:55.988Z,47.65
2022-11-13T13:12:51.079Z,47.09
2022-11-13T13:15:40.379Z,45.17
2022-11-13T13:18:30.103Z,44.14
2022-11-13T13:21:18.907Z,45.38
2022-11-13T13:24:09.827Z,46.13
2022-11-13T13:26:56.239Z,47.13
2022-11-13T13:29:42.270Z,47.92
2022-11-13T13:32:33.963Z,48.80
2022-11-13T13:35:23.035Z,48.91
2022-11-13T13:38:15.002Z,47.80
2022-11-13T13:41:00.926Z,45.56
2022-11-13T13:43:47.558Z,43.73
2022-11-13T13:46:34.741Z,44.84
2022-11-13T13:49:22.944Z,47.58
2022-11-13T13:52:14.561Z,48.59
2022-11-13T13:55:03.018Z,48.07
2022-11-13T13:57:52.239Z,48.56
2022-11-13T14:00:59.157Z,48.47
2022-11-13T14:03:47.015Z,50.84
2022-11-13T14:10:14.544Z,51.23
2022-11-13T14:16:13.356Z,51.57
2022-11-13T14:19:04.128Z,50.90
2022-11-13T14:21:53.243Z,50.25
2022-11-13T14:24:47.625Z,50.46
2022-11-13T14:27:35.168Z,51.04
2022-11-13T14:30:30.055Z,53.03
2022-11-13T14:33:18.000Z,54.31
2022-11-13T14:36:08.804Z,54.96
2022-11-13T14:39:00.434Z,56.98
2022-11-13T14:41:54.261Z,57.57
2022-11-13T14:44:40.511Z,58.18
2022-11-13T14:48:16.904Z,60.02
2022-11-13T14:51:07.194Z,64.87
2022-11-13T14:54:09.066Z,63.14
2022-11-13T14:57:13.076Z,63.59
2022-11-13T15:00:13.276Z,63.94
2022-11-13T15:03:02.116Z,66.18
2022-11-13T15:06:33.113Z,65.96
2022-11-13T15:09:48.558Z,66.26
2022-11-13T15:12:40.762Z,69.16
2022-11-13T15:15:36.947Z,68.03
2022-11-13T15:18:27.724Z,68.73
2022-11-13T15:21:13.526Z,71.57
2022-11-13T15:24:01.550Z,73.14
2022-11-13T15:26:50.892Z,74.33
2022-11-13T15:29:38.043Z,74.19
2022-11-13T15:32:31.883Z,74.97
2022-11-13T15:35:18.776Z,74.47
2022-11-13T15:38:08.667Z,75.31
2022-11-13T15:40:55.553Z,76.38
2022-11-13T15:43:52.525Z,78.52
2022-11-13T15:47:04.419Z,77.13
2022-11-13T15:50:10.173Z,77.50
2022-11-13T15:53:22.006Z,79.21
2022-11-13T15:56:10.901Z,79.60
2022-11-13T15:59:00.408Z,80.41
2022-11-13T16:01:47.822Z,81.36
2022-11-13T16:04:55.531Z,81.57
2022-11-13T16:07:43.751Z,81.94
2022-11-13T16:10:32.369Z,83.46
2022-11-13T16:13:29.063Z,82.29
2022-11-13T16:16:53.447Z,84.34
2022-11-13T16:19:59.669Z,83.29
2022-11-13T16:22:46.487Z,85.69
2022-11-13T16:25:38.923Z,86.62
2022-11-13T16:28:42.006Z,87.79
2022-11-13T16:33:23.214Z,88.07
2022-11-13T16:40:01.784Z,91.70
2022-11-13T16:46:35.815Z,93.69
2022-11-13T16:49:45.675Z,94.00
2022-11-13T16:53:06.674Z,95.84
2022-11-13T16:56:09.520Z,96.46
2022-11-13T17:02:41.787Z,93.62
2022-11-13T17:05:52.962Z,90.07
2022-11-13T17:13:30.263Z,88.82
2022-11-13T17:20:19.517Z,85.68
2022-11-13T17:27:02.267Z,85.67
2022-11-13T17:30:20.059Z,86.35
2022-11-13T17:33:09.509Z,87.18
2022-11-13T18:23:07.146Z,88.36
2022-11-13T18:26:44.436Z,90.29
2022-11-13T18:30:13.759Z,91.23
2022-11-13T18:33:43.222Z,88.71
2022-11-13T18:36:59.105Z,90.88
2022-11-13T18:44:25.699Z,93.85
2022-11-13T18:48:13.480Z,94.58
2022-11-13T18:55:26.007Z,93.74
2022-11-13T18:58:18.464Z,93.25
2022-11-13T19:02:03.479Z,94.24
2022-11-13T19:04:52.036Z,95.76
2022-11-13T19:07:43.061Z,94.11
2022-11-13T19:10:29.807Z,98.50
2022-11-13T19:13:43.963Z,100.00
2022-11-13T19:17:17.727Z,100.00
2022-11-13T19:20:08.987Z,100.00
2022-11-13T19:23:21.175Z,100.00
2022-11-13T19:26:43.999Z,100.00
2022-11-13T19:33:16.370Z,100.00
2022-11-13T19:36:14.326Z,100.00
2022-11-13T19:43:06.096Z,100.00
2022-11-13T19:57:05.657Z,100.00
2022-11-13T20:00:15.099Z,100.00
2022-11-13T20:03:35.733Z,100.00
2022-11-13T20:14:06.284Z,100.00
2022-11-13T20:17:06.915Z,100.00
2022-11-13T20:20:19.302Z,100.00
2022-11-13T20:23:18.407Z,100.00
2022-11-13T20:26:29.925Z,100.00
2022-11-13T20:29:22.547Z,100.00
2022-11-13T20:32:12.830Z,100.00
2022-11-13T20:35:02.945Z,100.00
2022-11-13T20:37:57.273Z,100.00
2022-11-13T20:40:49.959Z,100.00
2022-11-13T20:43:50.228Z,100.00
2022-11-13T20:46:40.596Z,100.00
2022-11-13T20:49:27.319Z,100.00
2022-11-13T20:52:28.701Z,100.00
2022-11-13T20:55:21.999Z,100.00
2022-11-13T20:58:16.329Z,100.00
2022-11-13T21:01:32.855Z,100.00
2022-11-13T21:07:45.766Z,100.00
2022-11-13T21:10:35.531Z,100.00
2022-11-13T21:13:22.242Z,100.00
2022-11-13T21:16:09.698Z,100.00
2022-11-13T21:19:05.368Z,100.00
2022-11-13T21:22:16.689Z,100.00
2022-11-13T21:25:11.085Z,100.00
2022-11-13T21:28:03.040Z,100.00
2022-11-13T21:30:52.851Z,100.00
2022-11-13T21:33:41.573Z,100.00
2022-11-13T21:36:32.754Z,100.00
2022-11-13T21:39:35.258Z,100.00
2022-11-13T21:42:23.472Z,100.00
2022-11-13T21:45:09.843Z,100.00
2022-11-13T21:48:06.023Z,100.00
2022-11-13T21:50:59.123Z,100.00
2022-11-13T21:53:51.977Z,100.00
2022-11-13T21:56:42.418Z,100.00
2022-11-13T21:59:34.503Z,100.00
2022-11-13T22:02:30.658Z,100.00
2022-11-13T22:05:19.943Z,100.00
2022-11-13T22:08:51.446Z,100.00
2022-11-13T22:12:06.122Z,100.00
2022-11-13T22:15:14.812Z,100.00
2022-11-13T22:18:10.575Z,100.00
2022-11-13T22:21:25.367Z,100.00
2022-11-13T22:24:34.134Z,100.00
2022-11-13T22:27:20.178Z,100.00
2022-11-13T22:30:10.035Z,100.00
2022-11-13T22:32:56.412Z,100.00
2022-11-13T22:35:43.454Z,100.00
2022-11-13T22:38:52.944Z,100.00
2022-11-13T22:42:04.298Z,100.00
2022-11-13T22:44:57.055Z,100.00
2022-11-13T22:51:14.752Z,100.00
2022-11-13T22:58:59.131Z,100.00
2022-11-13T23:04:38.951Z,100.00
2022-11-13T23:11:39.335Z,100.00
2022-11-13T23:14:57.773Z,100.00
2022-11-13T23:17:48.051Z,100.00
2022-11-13T23:20:38.491Z,100.00
2022-11-13T23:26:39.459Z,100.00
2022-11-13T23:29:26.262Z,100.00
2022-11-13T23:32:37.590Z,100.00
2022-11-13T23:35:52.937Z,100.00
2022-11-13T23:38:48.060Z,100.00
2022-11-13T23:41:54.515Z,100.00
2022-11-13T23:44:41.130Z,100.00
2022-11-13T23:47:41.417Z,100.00
2022-11-13T23:50:52.577Z,100.00
2022-11-13T23:53:39.293Z,100.00
2022-11-13T23:56:59.157Z,100.00
2022-11-13T23:59:51.271Z,100.00
